aviador You're here:

KBIX Decoded Metar

BILOXI in MS, USA
Report Time2017-04-24 12:58:00
UTC Time2017-04-24 13:13:26
Flight Rules vfr VFR
Wind320° at 10 kt
W.Decomp.*RWY 03: 3.3 kt HW 9.5 kt LCW
W.Rank320° ranks 30
Current wind is above 320° avg. (6.0)
Visibility9999 m
Phenomena:N/A
Clouds:N/A
Expected CloudBase > 1,600 ft AGL from Temp-Dew spread
CeilingNone
Temp14°C (ISA -1)
Dew Point10°C (77% RH)
AAT10.5°C
QNH1012 hPa
Density Alt121 ft
Elevation33 ft
Report Wrong Elevation
Raw Report
KBIX 241258Z AUTO 32010KT 10SM CLR 14/10 A2989 RMK AO2 SLP125
T01410100=

Extra information for KBIX:More info

Metar Taf Metar & Taf Last 4 Metars F.Rules Stats Wind Profile Meteogram Temp Stats Airport Information Weather charts Add Link Nearby VenuesMetar ALERT Operation Metar Decoded Social comments

AIRNAV info for KBIX